sensor_id;sensor_type;location;lat;lon;timestamp;pressure;altitude;pressure_sealevel;temperature
15845;BMP180;50807;52.436;13.346;2022-12-18T00:00:04;102783.00;;;0.10
15845;BMP180;50807;52.436;13.346;2022-12-18T00:00:40;102792.00;;;0.10
15845;BMP180;50807;52.436;13.346;2022-12-18T00:01:17;102780.00;;;0.10
15845;BMP180;50807;52.436;13.346;2022-12-18T00:01:48;102786.00;;;0.10
15845;BMP180;50807;52.436;13.346;2022-12-18T00:02:19;102783.00;;;0.10
15845;BMP180;50807;52.436;13.346;2022-12-18T00:02:50;102790.00;;;0.10
15845;BMP180;50807;52.436;13.346;2022-12-18T00:03:21;102790.00;;;0.10
15845;BMP180;50807;52.436;13.346;2022-12-18T00:03:53;102787.00;;;0.10
15845;BMP180;50807;52.436;13.346;2022-12-18T00:04:26;102790.00;;;0.10
15845;BMP180;50807;52.436;13.346;2022-12-18T00:04:58;102794.00;;;0.10
15845;BMP180;50807;52.436;13.346;2022-12-18T00:05:29;102794.00;;;0.10
15845;BMP180;50807;52.436;13.346;2022-12-18T00:06:01;102792.00;;;0.10
15845;BMP180;50807;52.436;13.346;2022-12-18T00:06:34;102791.00;;;0.00
15845;BMP180;50807;52.436;13.346;2022-12-18T00:07:06;102794.00;;;0.10
15845;BMP180;50807;52.436;13.346;2022-12-18T00:07:37;102796.00;;;0.00
15845;BMP180;50807;52.436;13.346;2022-12-18T00:08:09;102800.00;;;0.00
15845;BMP180;50807;52.436;13.346;2022-12-18T00:08:40;102792.00;;;0.00
15845;BMP180;50807;52.436;13.346;2022-12-18T00:09:11;102800.00;;;0.00
15845;BMP180;50807;52.436;13.346;2022-12-18T00:09:41;102802.00;;;0.00
15845;BMP180;50807;52.436;13.346;2022-12-18T00:10:13;102803.00;;;0.00
15845;BMP180;50807;52.436;13.346;2022-12-18T00:10:44;102796.00;;;0.00
15845;BMP180;50807;52.436;13.346;2022-12-18T00:11:17;102797.00;;;0.00
15845;BMP180;50807;52.436;13.346;2022-12-18T00:11:49;102792.00;;;0.00
15845;BMP180;50807;52.436;13.346;2022-12-18T00:12:20;102795.00;;;0.00
15845;BMP180;50807;52.436;13.346;2022-12-18T00:12:51;102791.00;;;0.00
15845;BMP180;50807;52.436;13.346;2022-12-18T00:13:22;102800.00;;;0.00
15845;BMP180;50807;52.436;13.346;2022-12-18T00:13:56;102793.00;;;0.00
15845;BMP180;50807;52.436;13.346;2022-12-18T00:14:27;102797.00;;;0.00
15845;BMP180;50807;52.436;13.346;2022-12-18T00:14:58;102797.00;;;0.00
15845;BMP180;50807;52.436;13.346;2022-12-18T00:15:30;102794.00;;;0.00
15845;BMP180;50807;52.436;13.346;2022-12-18T00:16:02;102798.00;;;0.00
15845;BMP180;50807;52.436;13.346;2022-12-18T00:16:33;102807.00;;;0.00
15845;BMP180;50807;52.436;13.346;2022-12-18T00:17:05;102803.00;;;0.00
15845;BMP180;50807;52.436;13.346;2022-12-18T00:17:37;102806.00;;;0.00
15845;BMP180;50807;52.436;13.346;2022-12-18T00:18:08;102804.00;;;0.00
15845;BMP180;50807;52.436;13.346;2022-12-18T00:18:39;102800.00;;;0.00
15845;BMP180;50807;52.436;13.346;2022-12-18T00:19:13;102800.00;;;0.00
15845;BMP180;50807;52.436;13.346;2022-12-18T00:19:44;102800.00;;;0.00
15845;BMP180;50807;52.436;13.346;2022-12-18T00:20:15;102805.00;;;0.00
15845;BMP180;50807;52.436;13.346;2022-12-18T00:20:51;102800.00;;;0.00
15845;BMP180;50807;52.436;13.346;2022-12-18T00:21:22;102801.00;;;0.00
15845;BMP180;50807;52.436;13.346;2022-12-18T00:21:54;102800.00;;;0.00
15845;BMP180;50807;52.436;13.346;2022-12-18T00:22:26;102793.00;;;-0.10
15845;BMP180;50807;52.436;13.346;2022-12-18T00:22:57;102801.00;;;-0.10
15845;BMP180;50807;52.436;13.346;2022-12-18T00:23:29;102802.00;;;-0.10
15845;BMP180;50807;52.436;13.346;2022-12-18T00:24:00;102803.00;;;-0.10
15845;BMP180;50807;52.436;13.346;2022-12-18T00:24:31;102794.00;;;-0.10
15845;BMP180;50807;52.436;13.346;2022-12-18T00:25:04;102803.00;;;-0.10
15845;BMP180;50807;52.436;13.346;2022-12-18T00:25:36;102799.00;;;-0.10
15845;BMP180;50807;52.436;13.346;2022-12-18T00:26:10;102804.00;;;-0.10
15845;BMP180;50807;52.436;13.346;2022-12-18T00:26:42;102798.00;;;-0.10
15845;BMP180;50807;52.436;13.346;2022-12-18T00:27:13;102795.00;;;-0.10
15845;BMP180;50807;52.436;13.346;2022-12-18T00:27:44;102794.00;;;-0.10
15845;BMP180;50807;52.436;13.346;2022-12-18T00:28:16;102800.00;;;-0.10
15845;BMP180;50807;52.436;13.346;2022-12-18T00:28:47;102798.00;;;-0.10
15845;BMP180;50807;52.436;13.346;2022-12-18T00:29:18;102791.00;;;-0.10
15845;BMP180;50807;52.436;13.346;2022-12-18T00:29:50;102791.00;;;-0.10
15845;BMP180;50807;52.436;13.346;2022-12-18T00:30:20;102800.00;;;-0.10
15845;BMP180;50807;52.436;13.346;2022-12-18T00:31:00;102795.00;;;-0.10
15845;BMP180;50807;52.436;13.346;2022-12-18T00:31:33;102792.00;;;-0.10
15845;BMP180;50807;52.436;13.346;2022-12-18T00:32:04;102797.00;;;-0.10
15845;BMP180;50807;52.436;13.346;2022-12-18T00:32:35;102800.00;;;-0.10
15845;BMP180;50807;52.436;13.346;2022-12-18T00:33:06;102799.00;;;-0.10
15845;BMP180;50807;52.436;13.346;2022-12-18T00:33:38;102804.00;;;-0.10
15845;BMP180;50807;52.436;13.346;2022-12-18T00:34:11;102799.00;;;-0.20
15845;BMP180;50807;52.436;13.346;2022-12-18T00:34:42;102808.00;;;-0.20
15845;BMP180;50807;52.436;13.346;2022-12-18T00:35:14;102806.00;;;-0.10
15845;BMP180;50807;52.436;13.346;2022-12-18T00:35:45;102796.00;;;-0.20
15845;BMP180;50807;52.436;13.346;2022-12-18T00:36:19;102781.00;;;-0.20
15845;BMP180;50807;52.436;13.346;2022-12-18T00:36:50;102785.00;;;-0.20
15845;BMP180;50807;52.436;13.346;2022-12-18T00:37:22;102789.00;;;-0.20
15845;BMP180;50807;52.436;13.346;2022-12-18T00:37:54;102779.00;;;-0.20
15845;BMP180;50807;52.436;13.346;2022-12-18T00:38:25;102780.00;;;-0.20
15845;BMP180;50807;52.436;13.346;2022-12-18T00:38:58;102787.00;;;-0.20
15845;BMP180;50807;52.436;13.346;2022-12-18T00:39:30;102790.00;;;-0.20
15845;BMP180;50807;52.436;13.346;2022-12-18T00:40:01;102783.00;;;-0.20
15845;BMP180;50807;52.436;13.346;2022-12-18T00:40:31;102780.00;;;-0.20
15845;BMP180;50807;52.436;13.346;2022-12-18T00:41:04;102783.00;;;-0.20
15845;BMP180;50807;52.436;13.346;2022-12-18T00:41:35;102789.00;;;-0.20
15845;BMP180;50807;52.436;13.346;2022-12-18T00:42:25;102785.00;;;-0.30
15845;BMP180;50807;52.436;13.346;2022-12-18T00:43:14;102786.00;;;-0.30
15845;BMP180;50807;52.436;13.346;2022-12-18T00:43:45;102788.00;;;-0.30
15845;BMP180;50807;52.436;13.346;2022-12-18T00:44:18;102779.00;;;-0.30
15845;BMP180;50807;52.436;13.346;2022-12-18T00:44:50;102790.00;;;-0.20
15845;BMP180;50807;52.436;13.346;2022-12-18T00:45:21;102787.00;;;-0.20
15845;BMP180;50807;52.436;13.346;2022-12-18T00:45:55;102779.00;;;-0.20
15845;BMP180;50807;52.436;13.346;2022-12-18T00:46:26;102782.00;;;-0.20
15845;BMP180;50807;52.436;13.346;2022-12-18T00:46:57;102782.00;;;-0.20
15845;BMP180;50807;52.436;13.346;2022-12-18T00:47:28;102785.00;;;-0.20
15845;BMP180;50807;52.436;13.346;2022-12-18T00:47:59;102783.00;;;-0.20
15845;BMP180;50807;52.436;13.346;2022-12-18T00:48:31;102789.00;;;-0.20
15845;BMP180;50807;52.436;13.346;2022-12-18T00:49:02;102788.00;;;-0.20
15845;BMP180;50807;52.436;13.346;2022-12-18T00:49:33;102781.00;;;-0.20
15845;BMP180;50807;52.436;13.346;2022-12-18T00:50:07;102787.00;;;-0.20
15845;BMP180;50807;52.436;13.346;2022-12-18T00:50:38;102789.00;;;-0.20
15845;BMP180;50807;52.436;13.346;2022-12-18T00:51:08;102789.00;;;-0.20
15845;BMP180;50807;52.436;13.346;2022-12-18T00:51:39;102786.00;;;-0.20
15845;BMP180;50807;52.436;13.346;2022-12-18T00:52:11;102794.00;;;-0.20
15845;BMP180;50807;52.436;13.346;2022-12-18T00:52:42;102793.00;;;-0.20
15845;BMP180;50807;52.436;13.346;2022-12-18T00:53:15;102792.00;;;-0.10
15845;BMP180;50807;52.436;13.346;2022-12-18T00:53:47;102790.00;;;-0.20
15845;BMP180;50807;52.436;13.346;2022-12-18T00:54:18;102795.00;;;-0.20
15845;BMP180;50807;52.436;13.346;2022-12-18T00:54:49;102786.00;;;-0.20
15845;BMP180;50807;52.436;13.346;2022-12-18T00:55:19;102797.00;;;-0.20
15845;BMP180;50807;52.436;13.346;2022-12-18T00:55:51;102783.00;;;-0.20
15845;BMP180;50807;52.436;13.346;2022-12-18T00:56:22;102780.00;;;-0.20
15845;BMP180;50807;52.436;13.346;2022-12-18T00:56:53;102783.00;;;-0.20
15845;BMP180;50807;52.436;13.346;2022-12-18T00:57:25;102786.00;;;-0.20
15845;BMP180;50807;52.436;13.346;2022-12-18T00:57:56;102780.00;;;-0.20
15845;BMP180;50807;52.436;13.346;2022-12-18T00:58:27;102790.00;;;-0.20
15845;BMP180;50807;52.436;13.346;2022-12-18T00:58:58;102781.00;;;-0.20
15845;BMP180;50807;52.436;13.346;2022-12-18T00:59:29;102787.00;;;-0.20
15845;BMP180;50807;52.436;13.346;2022-12-18T01:00:00;102789.00;;;-0.20
15845;BMP180;50807;52.436;13.346;2022-12-18T01:00:32;102777.00;;;-0.20
15845;BMP180;50807;52.436;13.346;2022-12-18T01:01:04;102797.00;;;-0.20
15845;BMP180;50807;52.436;13.346;2022-12-18T01:01:35;102795.00;;;-0.20
15845;BMP180;50807;52.436;13.346;2022-12-18T01:02:06;102798.00;;;-0.20
15845;BMP180;50807;52.436;13.346;2022-12-18T01:02:37;102784.00;;;-0.20
15845;BMP180;50807;52.436;13.346;2022-12-18T01:03:12;102795.00;;;-0.20
15845;BMP180;50807;52.436;13.346;2022-12-18T01:03:43;102780.00;;;-0.20
15845;BMP180;50807;52.436;13.346;2022-12-18T01:04:15;102784.00;;;-0.20
15845;BMP180;50807;52.436;13.346;2022-12-18T01:04:46;102784.00;;;-0.20
15845;BMP180;50807;52.436;13.346;2022-12-18T01:05:17;102783.00;;;-0.30
15845;BMP180;50807;52.436;13.346;2022-12-18T01:05:49;102795.00;;;-0.30
15845;BMP180;50807;52.436;13.346;2022-12-18T01:06:19;102795.00;;;-0.30
15845;BMP180;50807;52.436;13.346;2022-12-18T01:06:50;102795.00;;;-0.30
15845;BMP180;50807;52.436;13.346;2022-12-18T01:07:22;102786.00;;;-0.30
15845;BMP180;50807;52.436;13.346;2022-12-18T01:07:53;102784.00;;;-0.30
15845;BMP180;50807;52.436;13.346;2022-12-18T01:08:25;102787.00;;;-0.30
15845;BMP180;50807;52.436;13.346;2022-12-18T01:08:56;102789.00;;;-0.30
15845;BMP180;50807;52.436;13.346;2022-12-18T01:09:28;102786.00;;;-0.30
15845;BMP180;50807;52.436;13.346;2022-12-18T01:09:59;102785.00;;;-0.30
15845;BMP180;50807;52.436;13.346;2022-12-18T01:10:30;102798.00;;;-0.30
15845;BMP180;50807;52.436;13.346;2022-12-18T01:11:07;102797.00;;;-0.30
15845;BMP180;50807;52.436;13.346;2022-12-18T01:11:39;102791.00;;;-0.30
15845;BMP180;50807;52.436;13.346;2022-12-18T01:12:10;102795.00;;;-0.30
15845;BMP180;50807;52.436;13.346;2022-12-18T01:12:41;102797.00;;;-0.30
15845;BMP180;50807;52.436;13.346;2022-12-18T01:13:13;102794.00;;;-0.30
15845;BMP180;50807;52.436;13.346;2022-12-18T01:13:44;102794.00;;;-0.20
15845;BMP180;50807;52.436;13.346;2022-12-18T01:14:15;102800.00;;;-0.20
15845;BMP180;50807;52.436;13.346;2022-12-18T01:14:47;102795.00;;;-0.20
15845;BMP180;50807;52.436;13.346;2022-12-18T01:15:19;102797.00;;;-0.20
15845;BMP180;50807;52.436;13.346;2022-12-18T01:15:51;102794.00;;;-0.20
15845;BMP180;50807;52.436;13.346;2022-12-18T01:16:23;102789.00;;;-0.20
15845;BMP180;50807;52.436;13.346;2022-12-18T01:16:53;102785.00;;;-0.20
15845;BMP180;50807;52.436;13.346;2022-12-18T01:17:24;102790.00;;;-0.20
15845;BMP180;50807;52.436;13.346;2022-12-18T01:17:56;102795.00;;;-0.20
15845;BMP180;50807;52.436;13.346;2022-12-18T01:18:27;102798.00;;;-0.20
15845;BMP180;50807;52.436;13.346;2022-12-18T01:18:58;102801.00;;;-0.20
15845;BMP180;50807;52.436;13.346;2022-12-18T01:19:29;102795.00;;;-0.20
15845;BMP180;50807;52.436;13.346;2022-12-18T01:20:00;102806.00;;;-0.20
15845;BMP180;50807;52.436;13.346;2022-12-18T01:20:32;102794.00;;;-0.20
15845;BMP180;50807;52.436;13.346;2022-12-18T01:21:07;102799.00;;;-0.20
15845;BMP180;50807;52.436;13.346;2022-12-18T01:21:38;102803.00;;;-0.20
15845;BMP180;50807;52.436;13.346;2022-12-18T01:22:08;102801.00;;;-0.20
15845;BMP180;50807;52.436;13.346;2022-12-18T01:22:40;102798.00;;;-0.20
15845;BMP180;50807;52.436;13.346;2022-12-18T01:23:11;102809.00;;;-0.20
15845;BMP180;50807;52.436;13.346;2022-12-18T01:23:43;102801.00;;;-0.30
15845;BMP180;50807;52.436;13.346;2022-12-18T01:24:14;102807.00;;;-0.20
15845;BMP180;50807;52.436;13.346;2022-12-18T01:24:45;102807.00;;;-0.30
15845;BMP180;50807;52.436;13.346;2022-12-18T01:25:16;102802.00;;;-0.20
15845;BMP180;50807;52.436;13.346;2022-12-18T01:25:47;102805.00;;;-0.20
15845;BMP180;50807;52.436;13.346;2022-12-18T01:26:18;102802.00;;;-0.30
15845;BMP180;50807;52.436;13.346;2022-12-18T01:26:50;102802.00;;;-0.30
15845;BMP180;50807;52.436;13.346;2022-12-18T01:27:21;102804.00;;;-0.20
15845;BMP180;50807;52.436;13.346;2022-12-18T01:27:52;102800.00;;;-0.30
15845;BMP180;50807;52.436;13.346;2022-12-18T01:28:23;102811.00;;;-0.30
15845;BMP180;50807;52.436;13.346;2022-12-18T01:28:55;102810.00;;;-0.20
15845;BMP180;50807;52.436;13.346;2022-12-18T01:29:27;102811.00;;;-0.30
15845;BMP180;50807;52.436;13.346;2022-12-18T01:29:59;102814.00;;;-0.30
15845;BMP180;50807;52.436;13.346;2022-12-18T01:30:30;102815.00;;;-0.30
15845;BMP180;50807;52.436;13.346;2022-12-18T01:31:14;102818.00;;;-0.40
15845;BMP180;50807;52.436;13.346;2022-12-18T01:31:46;102814.00;;;-0.30
15845;BMP180;50807;52.436;13.346;2022-12-18T01:32:17;102816.00;;;-0.30
15845;BMP180;50807;52.436;13.346;2022-12-18T01:32:48;102825.00;;;-0.30
15845;BMP180;50807;52.436;13.346;2022-12-18T01:33:20;102815.00;;;-0.30
15845;BMP180;50807;52.436;13.346;2022-12-18T01:33:52;102826.00;;;-0.40
15845;BMP180;50807;52.436;13.346;2022-12-18T01:34:23;102830.00;;;-0.30
15845;BMP180;50807;52.436;13.346;2022-12-18T01:34:54;102823.00;;;-0.40
15845;BMP180;50807;52.436;13.346;2022-12-18T01:35:25;102819.00;;;-0.40
15845;BMP180;50807;52.436;13.346;2022-12-18T01:35:56;102828.00;;;-0.30
15845;BMP180;50807;52.436;13.346;2022-12-18T01:36:29;102819.00;;;-0.40
15845;BMP180;50807;52.436;13.346;2022-12-18T01:37:02;102821.00;;;-0.40
15845;BMP180;50807;52.436;13.346;2022-12-18T01:37:33;102827.00;;;-0.40
15845;BMP180;50807;52.436;13.346;2022-12-18T01:38:04;102824.00;;;-0.40
15845;BMP180;50807;52.436;13.346;2022-12-18T01:38:35;102814.00;;;-0.40
15845;BMP180;50807;52.436;13.346;2022-12-18T01:39:12;102821.00;;;-0.50
15845;BMP180;50807;52.436;13.346;2022-12-18T01:39:44;102815.00;;;-0.40
15845;BMP180;50807;52.436;13.346;2022-12-18T01:40:15;102825.00;;;-0.40
15845;BMP180;50807;52.436;13.346;2022-12-18T01:40:47;102818.00;;;-0.50
15845;BMP180;50807;52.436;13.346;2022-12-18T01:41:22;102818.00;;;-0.50
15845;BMP180;50807;52.436;13.346;2022-12-18T01:41:53;102823.00;;;-0.40
15845;BMP180;50807;52.436;13.346;2022-12-18T01:42:33;102820.00;;;-0.40
15845;BMP180;50807;52.436;13.346;2022-12-18T01:43:05;102813.00;;;-0.50
15845;BMP180;50807;52.436;13.346;2022-12-18T01:43:49;102822.00;;;-0.50
15845;BMP180;50807;52.436;13.346;2022-12-18T01:44:54;102826.00;;;-0.60
15845;BMP180;50807;52.436;13.346;2022-12-18T01:45:28;102819.00;;;-0.60
15845;BMP180;50807;52.436;13.346;2022-12-18T01:45:59;102822.00;;;-0.60
15845;BMP180;50807;52.436;13.346;2022-12-18T01:46:30;102826.00;;;-0.50
15845;BMP180;50807;52.436;13.346;2022-12-18T01:47:02;102824.00;;;-0.50
15845;BMP180;50807;52.436;13.346;2022-12-18T01:47:39;102814.00;;;-0.50
15845;BMP180;50807;52.436;13.346;2022-12-18T01:48:11;102832.00;;;-0.50
15845;BMP180;50807;52.436;13.346;2022-12-18T01:48:47;102827.00;;;-0.50
15845;BMP180;50807;52.436;13.346;2022-12-18T01:49:19;102833.00;;;-0.50
15845;BMP180;50807;52.436;13.346;2022-12-18T01:49:50;102821.00;;;-0.40
15845;BMP180;50807;52.436;13.346;2022-12-18T01:50:27;102829.00;;;-0.40
15845;BMP180;50807;52.436;13.346;2022-12-18T01:51:00;102824.00;;;-0.40
15845;BMP180;50807;52.436;13.346;2022-12-18T01:51:31;102840.00;;;-0.40
15845;BMP180;50807;52.436;13.346;2022-12-18T01:52:02;102828.00;;;-0.40
15845;BMP180;50807;52.436;13.346;2022-12-18T01:52:34;102829.00;;;-0.40
15845;BMP180;50807;52.436;13.346;2022-12-18T01:53:11;102831.00;;;-0.40
15845;BMP180;50807;52.436;13.346;2022-12-18T01:53:44;102832.00;;;-0.40
15845;BMP180;50807;52.436;13.346;2022-12-18T01:54:17;102824.00;;;-0.40
15845;BMP180;50807;52.436;13.346;2022-12-18T01:54:51;102824.00;;;-0.40
15845;BMP180;50807;52.436;13.346;2022-12-18T01:55:26;102817.00;;;-0.40
15845;BMP180;50807;52.436;13.346;2022-12-18T01:55:59;102820.00;;;-0.30
15845;BMP180;50807;52.436;13.346;2022-12-18T01:56:31;102835.00;;;-0.30
15845;BMP180;50807;52.436;13.346;2022-12-18T01:57:02;102824.00;;;-0.30
15845;BMP180;50807;52.436;13.346;2022-12-18T01:57:34;102820.00;;;-0.30
15845;BMP180;50807;52.436;13.346;2022-12-18T01:58:05;102827.00;;;-0.30
15845;BMP180;50807;52.436;13.346;2022-12-18T01:58:46;102827.00;;;-0.30
15845;BMP180;50807;52.436;13.346;2022-12-18T01:59:19;102828.00;;;-0.30
15845;BMP180;50807;52.436;13.346;2022-12-18T01:59:53;102820.00;;;-0.40
15845;BMP180;50807;52.436;13.346;2022-12-18T02:00:27;102827.00;;;-0.30
15845;BMP180;50807;52.436;13.346;2022-12-18T02:00:59;102827.00;;;-0.30
15845;BMP180;50807;52.436;13.346;2022-12-18T02:01:31;102828.00;;;-0.30
15845;BMP180;50807;52.436;13.346;2022-12-18T02:02:03;102826.00;;;-0.30
15845;BMP180;50807;52.436;13.346;2022-12-18T02:02:34;102825.00;;;-0.30
15845;BMP180;50807;52.436;13.346;2022-12-18T02:03:05;102822.00;;;-0.30
15845;BMP180;50807;52.436;13.346;2022-12-18T02:03:40;102828.00;;;-0.30
15845;BMP180;50807;52.436;13.346;2022-12-18T02:04:20;102824.00;;;-0.30
15845;BMP180;50807;52.436;13.346;2022-12-18T02:04:51;102819.00;;;-0.30
15845;BMP180;50807;52.436;13.346;2022-12-18T02:05:36;102826.00;;;-0.40
15845;BMP180;50807;52.436;13.346;2022-12-18T02:06:16;102815.00;;;-0.40
15845;BMP180;50807;52.436;13.346;2022-12-18T02:06:54;102834.00;;;-0.40
15845;BMP180;50807;52.436;13.346;2022-12-18T02:07:39;102822.00;;;-0.50
15845;BMP180;50807;52.436;13.346;2022-12-18T02:08:19;102822.00;;;-0.50
15845;BMP180;50807;52.436;13.346;2022-12-18T02:09:03;102822.00;;;-0.50
15845;BMP180;50807;52.436;13.346;2022-12-18T02:09:46;102826.00;;;-0.50
15845;BMP180;50807;52.436;13.346;2022-12-18T02:10:27;102828.00;;;-0.60
15845;BMP180;50807;52.436;13.346;2022-12-18T02:11:08;102822.00;;;-0.60
15845;BMP180;50807;52.436;13.346;2022-12-18T02:11:49;102824.00;;;-0.60
15845;BMP180;50807;52.436;13.346;2022-12-18T02:12:31;102828.00;;;-0.60
15845;BMP180;50807;52.436;13.346;2022-12-18T02:13:14;102821.00;;;-0.60
15845;BMP180;50807;52.436;13.346;2022-12-18T02:13:56;102823.00;;;-0.60
15845;BMP180;50807;52.436;13.346;2022-12-18T02:14:40;102830.00;;;-0.60
15845;BMP180;50807;52.436;13.346;2022-12-18T02:15:19;102820.00;;;-0.60
15845;BMP180;50807;52.436;13.346;2022-12-18T02:16:01;102830.00;;;-0.70
15845;BMP180;50807;52.436;13.346;2022-12-18T02:16:43;102832.00;;;-0.70
15845;BMP180;50807;52.436;13.346;2022-12-18T02:17:20;102836.00;;;-0.70
15845;BMP180;50807;52.436;13.346;2022-12-18T02:17:58;102843.00;;;-0.70
15845;BMP180;50807;52.436;13.346;2022-12-18T02:18:36;102840.00;;;-0.70
15845;BMP180;50807;52.436;13.346;2022-12-18T02:19:47;102843.00;;;-0.80
15845;BMP180;50807;52.436;13.346;2022-12-18T02:20:25;102839.00;;;-0.80
15845;BMP180;50807;52.436;13.346;2022-12-18T02:21:09;102839.00;;;-0.80
15845;BMP180;50807;52.436;13.346;2022-12-18T02:21:52;102846.00;;;-0.80
15845;BMP180;50807;52.436;13.346;2022-12-18T02:22:34;102843.00;;;-0.80
15845;BMP180;50807;52.436;13.346;2022-12-18T02:23:23;102843.00;;;-0.80
15845;BMP180;50807;52.436;13.346;2022-12-18T02:24:15;102845.00;;;-0.80
15845;BMP180;50807;52.436;13.346;2022-12-18T02:25:01;102852.00;;;-0.80
15845;BMP180;50807;52.436;13.346;2022-12-18T02:26:07;102839.00;;;-0.90
15845;BMP180;50807;52.436;13.346;2022-12-18T02:26:47;102838.00;;;-0.90
15845;BMP180;50807;52.436;13.346;2022-12-18T02:27:19;102834.00;;;-0.80
15845;BMP180;50807;52.436;13.346;2022-12-18T02:27:52;102838.00;;;-0.80
15845;BMP180;50807;52.436;13.346;2022-12-18T02:28:30;102836.00;;;-0.80
15845;BMP180;50807;52.436;13.346;2022-12-18T02:29:08;102833.00;;;-0.70
15845;BMP180;50807;52.436;13.346;2022-12-18T02:29:46;102837.00;;;-0.80
15845;BMP180;50807;52.436;13.346;2022-12-18T02:30:20;102831.00;;;-0.70
15845;BMP180;50807;52.436;13.346;2022-12-18T02:30:56;102841.00;;;-0.70
15845;BMP180;50807;52.436;13.346;2022-12-18T02:31:38;102834.00;;;-0.70
15845;BMP180;50807;52.436;13.346;2022-12-18T02:32:15;102842.00;;;-0.70
15845;BMP180;50807;52.436;13.346;2022-12-18T02:32:52;102841.00;;;-0.70
15845;BMP180;50807;52.436;13.346;2022-12-18T02:33:26;102833.00;;;-0.70
15845;BMP180;50807;52.436;13.346;2022-12-18T02:34:02;102843.00;;;-0.70
15845;BMP180;50807;52.436;13.346;2022-12-18T02:34:39;102842.00;;;-0.70
15845;BMP180;50807;52.436;13.346;2022-12-18T02:35:15;102846.00;;;-0.70
15845;BMP180;50807;52.436;13.346;2022-12-18T02:35:49;102848.00;;;-0.70
15845;BMP180;50807;52.436;13.346;2022-12-18T02:36:23;102842.00;;;-0.70
15845;BMP180;50807;52.436;13.346;2022-12-18T02:36:55;102853.00;;;-0.70
15845;BMP180;50807;52.436;13.346;2022-12-18T02:37:30;102850.00;;;-0.70
15845;BMP180;50807;52.436;13.346;2022-12-18T02:38:04;102846.00;;;-0.60
15845;BMP180;50807;52.436;13.346;2022-12-18T02:38:36;102849.00;;;-0.60
15845;BMP180;50807;52.436;13.346;2022-12-18T02:39:10;102847.00;;;-0.60
15845;BMP180;50807;52.436;13.346;2022-12-18T02:39:46;102855.00;;;-0.60
15845;BMP180;50807;52.436;13.346;2022-12-18T02:40:20;102853.00;;;-0.60
15845;BMP180;50807;52.436;13.346;2022-12-18T02:40:54;102853.00;;;-0.60
15845;BMP180;50807;52.436;13.346;2022-12-18T02:41:29;102853.00;;;-0.70
15845;BMP180;50807;52.436;13.346;2022-12-18T02:42:02;102859.00;;;-0.60
15845;BMP180;50807;52.436;13.346;2022-12-18T02:42:38;102853.00;;;-0.60
15845;BMP180;50807;52.436;13.346;2022-12-18T02:43:14;102852.00;;;-0.60
15845;BMP180;50807;52.436;13.346;2022-12-18T02:43:49;102855.00;;;-0.70
15845;BMP180;50807;52.436;13.346;2022-12-18T02:44:23;102852.00;;;-0.70
15845;BMP180;50807;52.436;13.346;2022-12-18T02:44:55;102862.00;;;-0.70
15845;BMP180;50807;52.436;13.346;2022-12-18T02:45:26;102860.00;;;-0.70
15845;BMP180;50807;52.436;13.346;2022-12-18T02:46:23;102867.00;;;-0.80
15845;BMP180;50807;52.436;13.346;2022-12-18T02:46:56;102859.00;;;-0.80
15845;BMP180;50807;52.436;13.346;2022-12-18T02:47:31;102864.00;;;-0.80
15845;BMP180;50807;52.436;13.346;2022-12-18T02:48:04;102862.00;;;-0.80
15845;BMP180;50807;52.436;13.346;2022-12-18T02:48:35;102854.00;;;-0.80
15845;BMP180;50807;52.436;13.346;2022-12-18T02:49:26;102846.00;;;-0.90
15845;BMP180;50807;52.436;13.346;2022-12-18T02:50:10;102859.00;;;-0.90
15845;BMP180;50807;52.436;13.346;2022-12-18T02:50:51;102853.00;;;-0.90
15845;BMP180;50807;52.436;13.346;2022-12-18T02:51:39;102856.00;;;-1.00
15845;BMP180;50807;52.436;13.346;2022-12-18T02:52:29;102861.00;;;-1.00
15845;BMP180;50807;52.436;13.346;2022-12-18T02:53:14;102856.00;;;-1.10
15845;BMP180;50807;52.436;13.346;2022-12-18T02:53:55;102858.00;;;-1.10
15845;BMP180;50807;52.436;13.346;2022-12-18T02:54:49;102864.00;;;-1.10
15845;BMP180;50807;52.436;13.346;2022-12-18T02:55:37;102865.00;;;-1.10
15845;BMP180;50807;52.436;13.346;2022-12-18T02:56:18;102868.00;;;-1.10
15845;BMP180;50807;52.436;13.346;2022-12-18T02:56:56;102857.00;;;-1.10
15845;BMP180;50807;52.436;13.346;2022-12-18T02:57:36;102855.00;;;-1.10
15845;BMP180;50807;52.436;13.346;2022-12-18T02:58:17;102852.00;;;-1.10
15845;BMP180;50807;52.436;13.346;2022-12-18T02:58:59;102859.00;;;-1.10
15845;BMP180;50807;52.436;13.346;2022-12-18T02:59:39;102859.00;;;-1.10
15845;BMP180;50807;52.436;13.346;2022-12-18T03:00:16;102860.00;;;-1.10
15845;BMP180;50807;52.436;13.346;2022-12-18T03:00:56;102853.00;;;-1.10
15845;BMP180;50807;52.436;13.346;2022-12-18T03:01:40;102857.00;;;-1.10
15845;BMP180;50807;52.436;13.346;2022-12-18T03:02:21;102857.00;;;-1.10
15845;BMP180;50807;52.436;13.346;2022-12-18T03:03:01;102854.00;;;-1.10
15845;BMP180;50807;52.436;13.346;2022-12-18T03:03:40;102847.00;;;-1.10
15845;BMP180;50807;52.436;13.346;2022-12-18T03:04:18;102850.00;;;-1.00
15845;BMP180;50807;52.436;13.346;2022-12-18T03:04:59;102862.00;;;-1.00
15845;BMP180;50807;52.436;13.346;2022-12-18T03:05:36;102854.00;;;-1.00
15845;BMP180;50807;52.436;13.346;2022-12-18T03:06:14;102858.00;;;-1.00
15845;BMP180;50807;52.436;13.346;2022-12-18T03:06:53;102859.00;;;-1.00
15845;BMP180;50807;52.436;13.346;2022-12-18T03:07:39;102856.00;;;-1.00
15845;BMP180;50807;52.436;13.346;2022-12-18T03:08:17;102857.00;;;-1.00
15845;BMP180;50807;52.436;13.346;2022-12-18T03:08:54;102850.00;;;-1.00
15845;BMP180;50807;52.436;13.346;2022-12-18T03:09:32;102855.00;;;-1.00
15845;BMP180;50807;52.436;13.346;2022-12-18T03:10:08;102857.00;;;-1.00
15845;BMP180;50807;52.436;13.346;2022-12-18T03:10:45;102854.00;;;-1.00
15845;BMP180;50807;52.436;13.346;2022-12-18T03:11:19;102850.00;;;-1.00
15845;BMP180;50807;52.436;13.346;2022-12-18T03:12:19;102862.00;;;-1.00
15845;BMP180;50807;52.436;13.346;2022-12-18T03:13:01;102863.00;;;-1.10
15845;BMP180;50807;52.436;13.346;2022-12-18T03:13:37;102859.00;;;-1.00
15845;BMP180;50807;52.436;13.346;2022-12-18T03:14:15;102863.00;;;-1.00
15845;BMP180;50807;52.436;13.346;2022-12-18T03:14:50;102863.00;;;-1.00